createdAt,value
2023-04-12T00:02:40.533Z,11.18
2023-04-12T00:07:42.174Z,11.42
2023-04-12T00:12:43.725Z,11.46
2023-04-12T00:17:45.351Z,11.44
2023-04-12T00:22:47.141Z,11.32
2023-04-12T00:27:48.657Z,11.32
2023-04-12T00:32:50.292Z,11.22
2023-04-12T00:37:51.880Z,10.99
2023-04-12T00:42:53.448Z,10.63
2023-04-12T00:47:55.381Z,10.56
2023-04-12T00:52:58.068Z,10.39
2023-04-12T00:57:59.658Z,10.32
2023-04-12T01:03:01.998Z,10.21
2023-04-12T01:08:23.934Z,10.14
2023-04-12T01:14:33.365Z,10.21
2023-04-12T01:19:50.101Z,10.15
2023-04-12T01:25:16.317Z,10.11
2023-04-12T01:30:19.830Z,10.08
2023-04-12T01:35:27.986Z,10.02
2023-04-12T01:40:31.202Z,9.92
2023-04-12T01:45:33.027Z,9.93
2023-04-12T01:51:03.898Z,9.86
2023-04-12T01:56:10.035Z,9.85
2023-04-12T02:01:13.839Z,9.69
2023-04-12T02:06:18.753Z,9.65
2023-04-12T02:11:20.250Z,9.62
2023-04-12T02:16:21.765Z,9.55
2023-04-12T02:21:23.450Z,9.53
2023-04-12T02:26:25.122Z,9.54
2023-04-12T02:31:26.759Z,9.50
2023-04-12T02:36:32.447Z,9.47
2023-04-12T02:41:34.636Z,9.41
2023-04-12T02:46:37.042Z,9.38
2023-04-12T02:51:38.710Z,9.33
2023-04-12T02:56:41.319Z,9.30
2023-04-12T03:02:03.008Z,9.25
2023-04-12T03:07:07.673Z,9.22
2023-04-12T03:12:17.820Z,9.21
2023-04-12T03:17:30.263Z,9.20
2023-04-12T03:22:32.223Z,9.22
2023-04-12T03:27:34.857Z,9.16
2023-04-12T03:32:36.684Z,9.17
2023-04-12T03:37:41.409Z,9.20
2023-04-12T03:42:43.758Z,9.21
2023-04-12T03:47:47.387Z,9.19
2023-04-12T03:52:51.049Z,9.15
2023-04-12T03:57:52.607Z,9.11
2023-04-12T04:02:57.823Z,9.11
2023-04-12T04:08:01.178Z,9.15
2023-04-12T04:13:07.466Z,9.14
2023-04-12T04:18:09.328Z,9.22
2023-04-12T04:23:12.317Z,9.16
2023-04-12T04:28:16.888Z,9.19
2023-04-12T04:33:18.625Z,9.25
2023-04-12T04:38:20.532Z,9.24
2023-04-12T04:43:22.597Z,9.23
2023-04-12T04:48:28.793Z,9.23
2023-04-12T04:53:30.324Z,9.26
2023-04-12T04:58:33.404Z,9.26
2023-04-12T05:03:35.011Z,9.23
2023-04-12T05:08:36.793Z,9.25
2023-04-12T05:13:38.861Z,9.22
2023-04-12T05:18:40.429Z,9.21
2023-04-12T05:23:44.940Z,9.17
2023-04-12T05:28:47.681Z,9.22
2023-04-12T05:33:50.054Z,9.16
2023-04-12T05:38:53.328Z,9.19
2023-04-12T05:43:54.910Z,9.20
2023-04-12T05:48:56.785Z,9.21
2023-04-12T05:53:58.574Z,9.22
2023-04-12T05:59:03.464Z,9.28
2023-04-12T06:04:05.320Z,9.28
2023-04-12T06:09:07.339Z,9.27
2023-04-12T06:14:11.229Z,9.24
2023-04-12T06:19:13.442Z,9.36
2023-04-12T06:24:14.929Z,9.33
2023-04-12T06:29:16.569Z,9.35
2023-04-12T06:34:20.794Z,9.35
2023-04-12T06:39:23.249Z,9.45
2023-04-12T06:44:24.942Z,9.51
2023-04-12T06:49:26.437Z,9.52
2023-04-12T06:54:27.941Z,9.62
2023-04-12T06:59:29.464Z,9.67
2023-04-12T07:04:30.997Z,9.67
2023-04-12T07:09:32.808Z,9.76
2023-04-12T07:14:34.350Z,9.78
2023-04-12T07:19:36.250Z,9.80
2023-04-12T07:24:37.773Z,9.87
2023-04-12T07:29:39.287Z,9.87
2023-04-12T07:34:40.851Z,10.01
2023-04-12T07:39:42.435Z,10.09
2023-04-12T07:44:44.010Z,10.12
2023-04-12T07:49:45.602Z,10.22
2023-04-12T07:54:47.121Z,10.46
2023-04-12T07:59:48.633Z,10.75
2023-04-12T08:04:54.107Z,10.46
2023-04-12T08:09:55.674Z,10.39
2023-04-12T08:14:57.182Z,10.47
2023-04-12T08:19:58.674Z,10.56
2023-04-12T08:25:00.201Z,10.59
2023-04-12T08:30:02.151Z,10.79
2023-04-12T08:35:05.092Z,11.01
2023-04-12T08:40:07.587Z,11.42
2023-04-12T08:45:10.808Z,11.50
2023-04-12T08:50:12.830Z,11.27
2023-04-12T08:55:14.345Z,11.34
2023-04-12T09:00:17.710Z,11.42
2023-04-12T09:05:19.487Z,11.74
2023-04-12T09:10:37.894Z,11.89
2023-04-12T09:15:49.017Z,12.15
2023-04-12T09:20:50.538Z,12.05
2023-04-12T09:25:52.213Z,11.94
2023-04-12T09:30:55.428Z,11.95
2023-04-12T09:36:00.919Z,12.02
2023-04-12T09:41:22.331Z,12.12
2023-04-12T09:46:27.260Z,12.09
2023-04-12T09:51:28.932Z,12.24
2023-04-12T09:56:35.241Z,12.30
2023-04-12T10:01:39.761Z,12.44
2023-04-12T10:06:41.846Z,12.67
2023-04-12T10:11:45.258Z,12.67
2023-04-12T10:16:48.851Z,12.83
2023-04-12T10:21:50.370Z,12.95
2023-04-12T10:26:53.547Z,12.86
2023-04-12T10:31:57.291Z,13.04
2023-04-12T10:37:00.363Z,13.20
2023-04-12T10:42:16.999Z,13.11
2023-04-12T10:47:49.545Z,13.01
2023-04-12T10:53:12.923Z,12.79
2023-04-12T10:58:49.117Z,12.44
2023-04-12T11:04:10.753Z,11.89
2023-04-12T11:09:28.519Z,11.74
2023-04-12T11:14:35.010Z,11.85
2023-04-12T11:19:43.931Z,11.73
2023-04-12T11:24:47.881Z,11.34
2023-04-12T11:29:57.014Z,11.51
2023-04-12T11:34:58.771Z,12.19
2023-04-12T11:40:04.042Z,12.84
2023-04-12T11:45:12.098Z,13.66
2023-04-12T11:50:28.930Z,13.82
2023-04-12T11:55:30.423Z,13.01
2023-04-12T12:00:32.057Z,12.97
2023-04-12T12:05:34.072Z,13.32
2023-04-12T12:10:51.985Z,13.00
2023-04-12T12:15:59.274Z,13.45
2023-04-12T12:21:00.838Z,13.96
2023-04-12T12:26:17.670Z,14.11
2023-04-12T12:31:23.271Z,14.03
2023-04-12T12:36:35.777Z,14.15
2023-04-12T12:41:37.847Z,14.83
2023-04-12T12:51:44.080Z,16.76
2023-04-12T12:56:45.578Z,16.15
2023-04-12T13:01:47.244Z,15.57
2023-04-12T13:06:48.790Z,15.95
2023-04-12T13:11:50.396Z,16.24
2023-04-12T13:16:51.981Z,15.60
2023-04-12T13:21:53.559Z,15.12
2023-04-12T13:26:55.092Z,15.25
2023-04-12T13:31:56.787Z,15.15
2023-04-12T13:36:58.897Z,14.98
2023-04-12T13:42:00.424Z,14.61
2023-04-12T13:47:02.947Z,16.51
2023-04-12T13:52:04.497Z,17.01
2023-04-12T13:57:06.042Z,18.38
2023-04-12T14:02:07.578Z,19.65
2023-04-12T14:07:09.108Z,17.51
2023-04-12T14:12:10.639Z,19.17
2023-04-12T14:17:12.217Z,19.44
2023-04-12T14:22:13.799Z,18.91
2023-04-12T14:27:17.369Z,19.49
2023-04-12T14:32:19.782Z,20.37
2023-04-12T14:37:21.361Z,17.93
2023-04-12T14:42:22.872Z,17.23
2023-04-12T14:47:24.400Z,18.19
2023-04-12T14:52:26.225Z,17.86
2023-04-12T14:57:27.724Z,17.52
2023-04-12T15:02:29.380Z,16.05
2023-04-12T15:07:31.060Z,15.75
2023-04-12T15:12:35.775Z,15.56
2023-04-12T15:17:37.397Z,14.77
2023-04-12T15:22:39.743Z,14.07
2023-04-12T15:27:41.238Z,9.99
2023-04-12T15:32:42.932Z,9.69
2023-04-12T15:37:44.621Z,9.98
2023-04-12T15:42:47.226Z,10.21
2023-04-12T15:47:48.814Z,10.23
2023-04-12T15:52:50.397Z,10.88
2023-04-12T15:57:51.936Z,10.87
2023-04-12T16:02:54.065Z,11.08
2023-04-12T16:07:55.865Z,11.32
2023-04-12T16:12:57.712Z,11.04
2023-04-12T16:17:59.447Z,11.09
2023-04-12T16:23:01.063Z,11.02
2023-04-12T16:28:02.722Z,10.05
2023-04-12T16:33:04.409Z,9.76
2023-04-12T16:38:06.429Z,9.64
2023-04-12T16:43:07.946Z,9.63
2023-04-12T16:48:09.712Z,9.75
2023-04-12T16:53:12.056Z,11.03
2023-04-12T16:58:14.880Z,11.85
2023-04-12T17:03:17.799Z,11.75
2023-04-12T17:08:20.332Z,11.30
2023-04-12T17:13:21.897Z,11.08
2023-04-12T17:18:23.520Z,10.86
2023-04-12T17:23:25.111Z,10.18
2023-04-12T17:28:26.754Z,10.19
2023-04-12T17:33:28.494Z,10.24
2023-04-12T17:38:30.143Z,10.24
2023-04-12T17:43:31.690Z,10.13
2023-04-12T17:48:33.188Z,10.33
2023-04-12T17:53:34.744Z,10.21
2023-04-12T17:58:36.274Z,9.95
2023-04-12T18:03:37.932Z,9.71
2023-04-12T18:08:39.644Z,9.51
2023-04-12T18:13:41.160Z,9.28
2023-04-12T18:18:42.632Z,9.09
2023-04-12T18:23:44.200Z,9.02
2023-04-12T18:28:45.731Z,8.99
2023-04-12T18:33:47.264Z,8.98
2023-04-12T18:38:48.761Z,9.06
2023-04-12T18:43:50.689Z,9.01
2023-04-12T18:48:52.539Z,8.95
2023-04-12T18:53:54.048Z,8.80
2023-04-12T18:58:56.391Z,8.76
2023-04-12T19:03:58.246Z,8.54
2023-04-12T19:09:00.519Z,8.23
2023-04-12T19:14:02.060Z,8.21
2023-04-12T19:19:03.639Z,8.37
2023-04-12T19:24:05.443Z,8.32
2023-04-12T19:29:06.976Z,8.33
2023-04-12T19:34:08.876Z,8.08
2023-04-12T19:39:10.756Z,7.93
2023-04-12T19:44:12.240Z,7.82
2023-04-12T19:49:13.758Z,7.75
2023-04-12T19:54:15.269Z,7.67
2023-04-12T19:59:17.042Z,7.56
2023-04-12T20:04:22.297Z,7.40
2023-04-12T20:09:23.842Z,7.25
2023-04-12T20:14:26.904Z,7.24
2023-04-12T20:19:28.658Z,7.17
2023-04-12T20:24:30.158Z,7.12
2023-04-12T20:29:32.876Z,7.00
2023-04-12T20:34:34.446Z,7.08
2023-04-12T20:39:35.982Z,7.14
2023-04-12T20:44:37.572Z,7.26
2023-04-12T20:49:39.102Z,7.46
2023-04-12T20:54:40.628Z,7.66
2023-04-12T20:59:42.177Z,7.87
2023-04-12T21:04:43.935Z,8.07
2023-04-12T21:09:45.413Z,8.18
2023-04-12T21:14:47.067Z,8.16
2023-04-12T21:19:48.554Z,8.22
2023-04-12T21:24:50.120Z,8.44
2023-04-12T21:29:51.601Z,8.61
2023-04-12T21:34:53.185Z,8.58
2023-04-12T21:39:54.696Z,8.80
2023-04-12T21:44:56.181Z,8.74
2023-04-12T21:49:58.670Z,8.67
2023-04-12T21:55:00.476Z,8.63
2023-04-12T22:00:03.029Z,8.43
2023-04-12T22:05:13.132Z,8.38
2023-04-12T22:10:14.690Z,8.24
2023-04-12T22:15:17.018Z,8.01
2023-04-12T22:20:18.606Z,7.67
2023-04-12T22:25:20.407Z,7.02
2023-04-12T22:30:21.932Z,6.85
2023-04-12T22:35:23.585Z,6.75
2023-04-12T22:40:25.079Z,6.78
2023-04-12T22:45:26.696Z,6.69
2023-04-12T22:50:28.213Z,6.61
2023-04-12T22:55:29.712Z,7.02
2023-04-12T23:00:31.651Z,7.25
2023-04-12T23:05:33.203Z,7.36
2023-04-12T23:10:34.831Z,7.35
2023-04-12T23:15:37.119Z,7.39
2023-04-12T23:20:38.670Z,7.50
2023-04-12T23:25:40.191Z,7.74
2023-04-12T23:30:43.994Z,7.63
2023-04-12T23:35:47.685Z,7.52
2023-04-12T23:40:49.545Z,7.59
2023-04-12T23:45:54.852Z,7.67
2023-04-12T23:50:56.346Z,7.67
2023-04-12T23:55:57.879Z,7.71
